sensor_id;sensor_type;location;lat;lon;timestamp;temperature;humidity
11617;DHT22;5864;52.998;9.068;2022-11-20T00:00:42;1.40;99.90
11617;DHT22;5864;52.998;9.068;2022-11-20T00:03:09;1.50;99.90
11617;DHT22;5864;52.998;9.068;2022-11-20T00:05:37;1.50;99.90
11617;DHT22;5864;52.998;9.068;2022-11-20T00:08:05;1.50;99.90
11617;DHT22;5864;52.998;9.068;2022-11-20T00:10:32;1.50;99.90
11617;DHT22;5864;52.998;9.068;2022-11-20T00:13:03;1.50;99.90
11617;DHT22;5864;52.998;9.068;2022-11-20T00:15:31;1.60;99.90
11617;DHT22;5864;52.998;9.068;2022-11-20T00:17:59;1.50;99.90
11617;DHT22;5864;52.998;9.068;2022-11-20T00:20:27;1.60;99.90
11617;DHT22;5864;52.998;9.068;2022-11-20T00:22:54;1.50;99.90
11617;DHT22;5864;52.998;9.068;2022-11-20T00:25:21;1.50;99.90
11617;DHT22;5864;52.998;9.068;2022-11-20T00:27:49;1.50;99.90
11617;DHT22;5864;52.998;9.068;2022-11-20T00:30:17;1.50;99.90
11617;DHT22;5864;52.998;9.068;2022-11-20T00:32:46;1.60;99.90
11617;DHT22;5864;52.998;9.068;2022-11-20T00:35:14;1.60;99.90
11617;DHT22;5864;52.998;9.068;2022-11-20T00:37:41;1.50;99.90
11617;DHT22;5864;52.998;9.068;2022-11-20T00:40:10;1.50;99.90
11617;DHT22;5864;52.998;9.068;2022-11-20T00:42:37;1.60;99.90
11617;DHT22;5864;52.998;9.068;2022-11-20T00:45:05;1.60;99.90
11617;DHT22;5864;52.998;9.068;2022-11-20T00:47:33;1.70;99.90
11617;DHT22;5864;52.998;9.068;2022-11-20T00:50:02;1.70;99.90
11617;DHT22;5864;52.998;9.068;2022-11-20T00:52:30;1.70;99.90
11617;DHT22;5864;52.998;9.068;2022-11-20T00:54:57;1.70;99.90
11617;DHT22;5864;52.998;9.068;2022-11-20T00:57:25;1.60;99.90
11617;DHT22;5864;52.998;9.068;2022-11-20T00:59:52;1.70;99.90
11617;DHT22;5864;52.998;9.068;2022-11-20T01:02:19;1.60;99.90
11617;DHT22;5864;52.998;9.068;2022-11-20T01:04:47;1.70;99.90
11617;DHT22;5864;52.998;9.068;2022-11-20T01:07:16;1.60;99.90
11617;DHT22;5864;52.998;9.068;2022-11-20T01:09:43;1.60;99.90
11617;DHT22;5864;52.998;9.068;2022-11-20T01:12:11;1.70;99.90
11617;DHT22;5864;52.998;9.068;2022-11-20T01:14:38;1.60;99.90
11617;DHT22;5864;52.998;9.068;2022-11-20T01:17:06;1.70;99.90
11617;DHT22;5864;52.998;9.068;2022-11-20T01:19:33;1.70;99.90
11617;DHT22;5864;52.998;9.068;2022-11-20T01:22:00;1.70;99.90
11617;DHT22;5864;52.998;9.068;2022-11-20T01:24:29;1.70;99.90
11617;DHT22;5864;52.998;9.068;2022-11-20T01:26:57;1.70;99.90
11617;DHT22;5864;52.998;9.068;2022-11-20T01:29:25;1.70;99.90
11617;DHT22;5864;52.998;9.068;2022-11-20T01:31:52;1.60;99.90
11617;DHT22;5864;52.998;9.068;2022-11-20T01:34:21;1.70;99.90
11617;DHT22;5864;52.998;9.068;2022-11-20T01:36:49;1.70;99.90
11617;DHT22;5864;52.998;9.068;2022-11-20T01:39:19;1.80;99.90
11617;DHT22;5864;52.998;9.068;2022-11-20T01:41:49;1.70;99.90
11617;DHT22;5864;52.998;9.068;2022-11-20T01:44:50;1.70;99.90
11617;DHT22;5864;52.998;9.068;2022-11-20T01:47:23;1.70;99.90
11617;DHT22;5864;52.998;9.068;2022-11-20T01:49:56;1.70;99.90
11617;DHT22;5864;52.998;9.068;2022-11-20T01:52:29;1.80;99.90
11617;DHT22;5864;52.998;9.068;2022-11-20T01:55:01;1.70;99.90
11617;DHT22;5864;52.998;9.068;2022-11-20T01:57:33;1.70;99.90
11617;DHT22;5864;52.998;9.068;2022-11-20T02:00:05;1.70;99.90
11617;DHT22;5864;52.998;9.068;2022-11-20T02:02:34;1.70;99.90
11617;DHT22;5864;52.998;9.068;2022-11-20T02:05:08;1.70;99.90
11617;DHT22;5864;52.998;9.068;2022-11-20T02:07:37;1.70;99.90
11617;DHT22;5864;52.998;9.068;2022-11-20T02:10:06;1.70;99.90
11617;DHT22;5864;52.998;9.068;2022-11-20T02:12:35;1.70;99.90
11617;DHT22;5864;52.998;9.068;2022-11-20T02:15:20;1.70;99.90
11617;DHT22;5864;52.998;9.068;2022-11-20T02:17:48;1.70;99.90
11617;DHT22;5864;52.998;9.068;2022-11-20T02:20:15;1.70;99.90
11617;DHT22;5864;52.998;9.068;2022-11-20T02:22:50;1.70;99.90
11617;DHT22;5864;52.998;9.068;2022-11-20T02:25:21;1.70;99.90
11617;DHT22;5864;52.998;9.068;2022-11-20T02:27:49;1.70;99.90
11617;DHT22;5864;52.998;9.068;2022-11-20T02:30:18;1.70;99.90
11617;DHT22;5864;52.998;9.068;2022-11-20T02:32:45;1.60;99.90
11617;DHT22;5864;52.998;9.068;2022-11-20T02:35:39;1.70;99.90
11617;DHT22;5864;52.998;9.068;2022-11-20T02:38:07;1.70;99.90
11617;DHT22;5864;52.998;9.068;2022-11-20T02:40:36;1.70;99.90
11617;DHT22;5864;52.998;9.068;2022-11-20T02:43:04;1.70;99.90
11617;DHT22;5864;52.998;9.068;2022-11-20T02:45:31;1.70;99.90
11617;DHT22;5864;52.998;9.068;2022-11-20T02:47:59;1.70;99.90
11617;DHT22;5864;52.998;9.068;2022-11-20T02:50:26;1.60;99.90
11617;DHT22;5864;52.998;9.068;2022-11-20T02:52:54;1.70;99.90
11617;DHT22;5864;52.998;9.068;2022-11-20T02:55:21;1.70;99.90
11617;DHT22;5864;52.998;9.068;2022-11-20T02:57:50;0.00;99.90
11617;DHT22;5864;52.998;9.068;2022-11-20T03:00:18;1.60;99.90
11617;DHT22;5864;52.998;9.068;2022-11-20T03:02:46;1.50;99.90
11617;DHT22;5864;52.998;9.068;2022-11-20T03:05:13;1.50;99.90
11617;DHT22;5864;52.998;9.068;2022-11-20T03:07:41;1.50;99.90
11617;DHT22;5864;52.998;9.068;2022-11-20T03:10:09;1.50;99.90
11617;DHT22;5864;52.998;9.068;2022-11-20T03:12:36;1.60;99.90
11617;DHT22;5864;52.998;9.068;2022-11-20T03:15:06;1.60;99.90
11617;DHT22;5864;52.998;9.068;2022-11-20T03:17:34;1.60;99.90
11617;DHT22;5864;52.998;9.068;2022-11-20T03:20:01;1.60;99.90
11617;DHT22;5864;52.998;9.068;2022-11-20T03:22:29;1.60;99.90
11617;DHT22;5864;52.998;9.068;2022-11-20T03:24:57;1.70;99.90
11617;DHT22;5864;52.998;9.068;2022-11-20T03:27:24;1.70;99.90
11617;DHT22;5864;52.998;9.068;2022-11-20T03:29:51;1.70;99.90
11617;DHT22;5864;52.998;9.068;2022-11-20T03:32:20;1.60;99.90
11617;DHT22;5864;52.998;9.068;2022-11-20T03:34:48;1.60;99.90
11617;DHT22;5864;52.998;9.068;2022-11-20T03:37:15;1.60;99.90
11617;DHT22;5864;52.998;9.068;2022-11-20T03:39:42;1.60;99.90
11617;DHT22;5864;52.998;9.068;2022-11-20T03:42:10;1.60;99.90
11617;DHT22;5864;52.998;9.068;2022-11-20T03:44:57;1.60;99.90
11617;DHT22;5864;52.998;9.068;2022-11-20T03:47:26;1.60;99.90
11617;DHT22;5864;52.998;9.068;2022-11-20T03:49:54;1.60;99.90
11617;DHT22;5864;52.998;9.068;2022-11-20T03:52:22;1.60;99.90
11617;DHT22;5864;52.998;9.068;2022-11-20T03:54:49;1.60;99.90
11617;DHT22;5864;52.998;9.068;2022-11-20T03:57:16;1.60;99.90
11617;DHT22;5864;52.998;9.068;2022-11-20T03:59:44;1.60;99.90
11617;DHT22;5864;52.998;9.068;2022-11-20T04:02:11;1.70;99.90
11617;DHT22;5864;52.998;9.068;2022-11-20T04:04:40;1.70;99.90
11617;DHT22;5864;52.998;9.068;2022-11-20T04:07:08;1.70;99.90
11617;DHT22;5864;52.998;9.068;2022-11-20T04:09:35;1.60;99.90
11617;DHT22;5864;52.998;9.068;2022-11-20T04:12:03;1.70;99.90
11617;DHT22;5864;52.998;9.068;2022-11-20T04:14:31;1.70;99.90
11617;DHT22;5864;52.998;9.068;2022-11-20T04:16:59;1.70;99.90
11617;DHT22;5864;52.998;9.068;2022-11-20T04:19:26;1.70;99.90
11617;DHT22;5864;52.998;9.068;2022-11-20T04:21:55;1.70;99.90
11617;DHT22;5864;52.998;9.068;2022-11-20T04:24:23;1.70;99.90
11617;DHT22;5864;52.998;9.068;2022-11-20T04:26:50;1.70;99.90
11617;DHT22;5864;52.998;9.068;2022-11-20T04:29:17;1.70;99.90
11617;DHT22;5864;52.998;9.068;2022-11-20T04:31:45;1.70;99.90
11617;DHT22;5864;52.998;9.068;2022-11-20T04:34:12;1.70;99.90
11617;DHT22;5864;52.998;9.068;2022-11-20T04:36:40;1.70;99.90
11617;DHT22;5864;52.998;9.068;2022-11-20T04:39:14;1.80;99.90
11617;DHT22;5864;52.998;9.068;2022-11-20T04:41:43;1.80;99.90
11617;DHT22;5864;52.998;9.068;2022-11-20T04:44:10;1.80;99.90
11617;DHT22;5864;52.998;9.068;2022-11-20T04:46:39;1.80;99.90
11617;DHT22;5864;52.998;9.068;2022-11-20T04:49:07;1.70;99.90
11617;DHT22;5864;52.998;9.068;2022-11-20T04:51:35;1.70;99.90
11617;DHT22;5864;52.998;9.068;2022-11-20T04:54:03;1.80;99.90
11617;DHT22;5864;52.998;9.068;2022-11-20T04:56:31;1.70;99.90
11617;DHT22;5864;52.998;9.068;2022-11-20T04:59:00;1.70;99.90
11617;DHT22;5864;52.998;9.068;2022-11-20T05:01:28;1.70;99.90
11617;DHT22;5864;52.998;9.068;2022-11-20T05:03:56;1.80;99.90
11617;DHT22;5864;52.998;9.068;2022-11-20T05:06:23;1.80;99.90
11617;DHT22;5864;52.998;9.068;2022-11-20T05:08:51;1.80;99.90
11617;DHT22;5864;52.998;9.068;2022-11-20T05:11:20;1.80;99.90
11617;DHT22;5864;52.998;9.068;2022-11-20T05:13:50;1.80;99.90
11617;DHT22;5864;52.998;9.068;2022-11-20T05:16:18;1.70;99.90
11617;DHT22;5864;52.998;9.068;2022-11-20T05:18:47;1.70;99.90
11617;DHT22;5864;52.998;9.068;2022-11-20T05:21:15;1.70;99.90
11617;DHT22;5864;52.998;9.068;2022-11-20T05:23:43;1.70;99.90
11617;DHT22;5864;52.998;9.068;2022-11-20T05:26:15;1.70;99.90
11617;DHT22;5864;52.998;9.068;2022-11-20T05:28:43;1.70;99.90
11617;DHT22;5864;52.998;9.068;2022-11-20T05:31:13;1.70;99.90
11617;DHT22;5864;52.998;9.068;2022-11-20T05:33:42;1.70;99.90
11617;DHT22;5864;52.998;9.068;2022-11-20T05:36:10;1.70;99.90
11617;DHT22;5864;52.998;9.068;2022-11-20T05:38:39;1.70;99.90
11617;DHT22;5864;52.998;9.068;2022-11-20T05:41:08;1.70;99.90
11617;DHT22;5864;52.998;9.068;2022-11-20T05:43:37;1.70;99.90
11617;DHT22;5864;52.998;9.068;2022-11-20T05:46:06;1.70;99.90
11617;DHT22;5864;52.998;9.068;2022-11-20T05:48:36;1.70;99.90
11617;DHT22;5864;52.998;9.068;2022-11-20T05:51:05;1.80;99.90
11617;DHT22;5864;52.998;9.068;2022-11-20T05:53:33;1.70;99.90
11617;DHT22;5864;52.998;9.068;2022-11-20T05:56:03;1.70;99.90
11617;DHT22;5864;52.998;9.068;2022-11-20T05:58:31;1.80;99.90
11617;DHT22;5864;52.998;9.068;2022-11-20T06:01:05;1.80;99.90
11617;DHT22;5864;52.998;9.068;2022-11-20T06:03:32;1.80;99.90
11617;DHT22;5864;52.998;9.068;2022-11-20T06:06:03;1.90;99.90
11617;DHT22;5864;52.998;9.068;2022-11-20T06:08:31;1.80;99.90
11617;DHT22;5864;52.998;9.068;2022-11-20T06:11:02;1.80;99.90
11617;DHT22;5864;52.998;9.068;2022-11-20T06:13:29;1.90;99.90
11617;DHT22;5864;52.998;9.068;2022-11-20T06:15:57;1.80;99.90
11617;DHT22;5864;52.998;9.068;2022-11-20T06:18:25;1.80;99.90
11617;DHT22;5864;52.998;9.068;2022-11-20T06:21:01;1.80;99.90
11617;DHT22;5864;52.998;9.068;2022-11-20T06:23:30;1.70;99.90
11617;DHT22;5864;52.998;9.068;2022-11-20T06:25:58;1.70;99.90
11617;DHT22;5864;52.998;9.068;2022-11-20T06:28:25;1.80;99.90
11617;DHT22;5864;52.998;9.068;2022-11-20T06:30:53;1.80;99.90
11617;DHT22;5864;52.998;9.068;2022-11-20T06:33:20;1.90;99.90
11617;DHT22;5864;52.998;9.068;2022-11-20T06:35:47;1.80;99.90
11617;DHT22;5864;52.998;9.068;2022-11-20T06:38:16;1.80;99.90
11617;DHT22;5864;52.998;9.068;2022-11-20T06:40:44;1.90;99.90
11617;DHT22;5864;52.998;9.068;2022-11-20T06:43:11;1.90;99.90
11617;DHT22;5864;52.998;9.068;2022-11-20T06:45:39;1.90;99.90
11617;DHT22;5864;52.998;9.068;2022-11-20T06:48:06;1.90;99.90
11617;DHT22;5864;52.998;9.068;2022-11-20T06:50:34;1.90;99.90
11617;DHT22;5864;52.998;9.068;2022-11-20T06:53:02;1.90;99.90
11617;DHT22;5864;52.998;9.068;2022-11-20T06:55:31;1.90;99.90
11617;DHT22;5864;52.998;9.068;2022-11-20T06:57:59;1.90;99.90
11617;DHT22;5864;52.998;9.068;2022-11-20T07:00:26;1.90;99.90
11617;DHT22;5864;52.998;9.068;2022-11-20T07:02:53;1.90;99.90
11617;DHT22;5864;52.998;9.068;2022-11-20T07:05:21;1.90;99.90
11617;DHT22;5864;52.998;9.068;2022-11-20T07:07:48;1.90;99.90
11617;DHT22;5864;52.998;9.068;2022-11-20T07:10:16;1.80;99.90
11617;DHT22;5864;52.998;9.068;2022-11-20T07:12:50;1.80;99.90
11617;DHT22;5864;52.998;9.068;2022-11-20T07:15:18;1.80;99.90
11617;DHT22;5864;52.998;9.068;2022-11-20T07:17:46;1.80;99.90
11617;DHT22;5864;52.998;9.068;2022-11-20T07:20:14;1.70;99.90
11617;DHT22;5864;52.998;9.068;2022-11-20T07:22:42;1.70;99.90
11617;DHT22;5864;52.998;9.068;2022-11-20T07:25:12;1.70;99.90
11617;DHT22;5864;52.998;9.068;2022-11-20T07:27:40;1.70;99.90
11617;DHT22;5864;52.998;9.068;2022-11-20T07:30:09;1.70;99.90
11617;DHT22;5864;52.998;9.068;2022-11-20T07:32:37;1.70;99.90
11617;DHT22;5864;52.998;9.068;2022-11-20T07:35:05;1.80;99.90
11617;DHT22;5864;52.998;9.068;2022-11-20T07:37:34;1.80;99.90
11617;DHT22;5864;52.998;9.068;2022-11-20T07:40:01;1.90;99.90
11617;DHT22;5864;52.998;9.068;2022-11-20T07:42:29;1.80;99.90
11617;DHT22;5864;52.998;9.068;2022-11-20T07:44:57;1.90;99.90
11617;DHT22;5864;52.998;9.068;2022-11-20T07:47:25;1.90;99.90
11617;DHT22;5864;52.998;9.068;2022-11-20T07:49:53;1.90;99.90
11617;DHT22;5864;52.998;9.068;2022-11-20T07:52:20;1.90;99.90
11617;DHT22;5864;52.998;9.068;2022-11-20T07:54:48;2.00;99.90
11617;DHT22;5864;52.998;9.068;2022-11-20T07:57:15;2.00;99.90
11617;DHT22;5864;52.998;9.068;2022-11-20T07:59:43;2.00;99.90
11617;DHT22;5864;52.998;9.068;2022-11-20T08:02:12;2.10;99.90
11617;DHT22;5864;52.998;9.068;2022-11-20T08:04:40;2.10;99.90
11617;DHT22;5864;52.998;9.068;2022-11-20T08:07:08;2.10;99.90
11617;DHT22;5864;52.998;9.068;2022-11-20T08:09:35;2.20;99.90
11617;DHT22;5864;52.998;9.068;2022-11-20T08:12:03;2.10;99.90
11617;DHT22;5864;52.998;9.068;2022-11-20T08:14:48;2.10;99.90
11617;DHT22;5864;52.998;9.068;2022-11-20T08:17:16;2.20;99.90
11617;DHT22;5864;52.998;9.068;2022-11-20T08:19:45;2.20;99.90
11617;DHT22;5864;52.998;9.068;2022-11-20T08:22:13;2.30;99.90
11617;DHT22;5864;52.998;9.068;2022-11-20T08:24:40;2.30;99.90
11617;DHT22;5864;52.998;9.068;2022-11-20T08:27:08;2.40;99.90
11617;DHT22;5864;52.998;9.068;2022-11-20T08:29:35;2.30;99.90
11617;DHT22;5864;52.998;9.068;2022-11-20T08:32:03;2.40;99.90
11617;DHT22;5864;52.998;9.068;2022-11-20T08:34:31;2.50;99.90
11617;DHT22;5864;52.998;9.068;2022-11-20T08:37:01;2.40;77.50
11617;DHT22;5864;52.998;9.068;2022-11-20T08:39:29;2.40;88.50
11617;DHT22;5864;52.998;9.068;2022-11-20T08:41:56;2.40;90.00
11617;DHT22;5864;52.998;9.068;2022-11-20T08:44:24;2.50;90.40
11617;DHT22;5864;52.998;9.068;2022-11-20T08:46:51;2.50;85.50
11617;DHT22;5864;52.998;9.068;2022-11-20T08:49:18;2.50;87.30
11617;DHT22;5864;52.998;9.068;2022-11-20T08:51:47;2.60;92.00
11617;DHT22;5864;52.998;9.068;2022-11-20T08:54:21;2.60;81.00
11617;DHT22;5864;52.998;9.068;2022-11-20T08:56:48;2.60;72.00
11617;DHT22;5864;52.998;9.068;2022-11-20T08:59:16;2.70;67.70
11617;DHT22;5864;52.998;9.068;2022-11-20T09:01:43;2.80;63.80
11617;DHT22;5864;52.998;9.068;2022-11-20T09:04:10;3.00;68.30
11617;DHT22;5864;52.998;9.068;2022-11-20T09:06:40;3.10;30.80
11617;DHT22;5864;52.998;9.068;2022-11-20T09:09:07;3.30;33.90
11617;DHT22;5864;52.998;9.068;2022-11-20T09:11:36;3.50;21.70
11617;DHT22;5864;52.998;9.068;2022-11-20T09:14:04;3.60;19.20
11617;DHT22;5864;52.998;9.068;2022-11-20T09:16:31;3.80;10.00
11617;DHT22;5864;52.998;9.068;2022-11-20T09:18:59;4.00;1.00
11617;DHT22;5864;52.998;9.068;2022-11-20T09:21:26;4.20;1.00
11617;DHT22;5864;52.998;9.068;2022-11-20T09:23:54;4.40;1.00
11617;DHT22;5864;52.998;9.068;2022-11-20T09:26:21;4.60;1.00
11617;DHT22;5864;52.998;9.068;2022-11-20T09:28:50;4.50;1.00
11617;DHT22;5864;52.998;9.068;2022-11-20T09:31:22;4.30;1.00
11617;DHT22;5864;52.998;9.068;2022-11-20T09:33:50;4.20;1.00
11617;DHT22;5864;52.998;9.068;2022-11-20T09:36:17;4.00;1.00
11617;DHT22;5864;52.998;9.068;2022-11-20T09:38:48;3.90;1.00
11617;DHT22;5864;52.998;9.068;2022-11-20T09:41:45;3.70;1.00
11617;DHT22;5864;52.998;9.068;2022-11-20T09:44:31;3.70;12.60
11617;DHT22;5864;52.998;9.068;2022-11-20T09:47:05;3.80;12.60
11617;DHT22;5864;52.998;9.068;2022-11-20T09:49:49;3.50;24.00
11617;DHT22;5864;52.998;9.068;2022-11-20T09:52:28;3.60;30.50
11617;DHT22;5864;52.998;9.068;2022-11-20T09:54:56;3.60;35.00
11617;DHT22;5864;52.998;9.068;2022-11-20T09:57:29;3.60;27.50
11617;DHT22;5864;52.998;9.068;2022-11-20T10:00:03;3.60;27.50
11617;DHT22;5864;52.998;9.068;2022-11-20T10:02:39;3.60;40.90
11617;DHT22;5864;52.998;9.068;2022-11-20T10:05:11;3.70;41.70
11617;DHT22;5864;52.998;9.068;2022-11-20T10:07:42;3.80;26.50
11617;DHT22;5864;52.998;9.068;2022-11-20T10:10:15;3.70;31.80
11617;DHT22;5864;52.998;9.068;2022-11-20T10:12:56;3.70;30.80
11617;DHT22;5864;52.998;9.068;2022-11-20T10:15:34;3.60;21.60
11617;DHT22;5864;52.998;9.068;2022-11-20T10:18:15;3.60;39.80
11617;DHT22;5864;52.998;9.068;2022-11-20T10:20:46;3.60;29.80
11617;DHT22;5864;52.998;9.068;2022-11-20T10:23:45;3.60;29.30
11617;DHT22;5864;52.998;9.068;2022-11-20T10:26:21;3.50;34.70
11617;DHT22;5864;52.998;9.068;2022-11-20T10:29:01;3.50;36.50
11617;DHT22;5864;52.998;9.068;2022-11-20T10:31:37;3.50;43.80
11617;DHT22;5864;52.998;9.068;2022-11-20T10:34:07;3.30;32.40
11617;DHT22;5864;52.998;9.068;2022-11-20T10:36:45;3.30;52.70
11617;DHT22;5864;52.998;9.068;2022-11-20T10:39:18;3.30;44.40
11617;DHT22;5864;52.998;9.068;2022-11-20T10:41:51;3.40;46.10
11617;DHT22;5864;52.998;9.068;2022-11-20T10:44:21;3.30;43.40
11617;DHT22;5864;52.998;9.068;2022-11-20T10:47:08;3.20;66.80
11617;DHT22;5864;52.998;9.068;2022-11-20T10:49:37;3.10;55.10
11617;DHT22;5864;52.998;9.068;2022-11-20T10:52:10;3.00;76.30
11617;DHT22;5864;52.998;9.068;2022-11-20T10:54:45;3.00;90.20
11617;DHT22;5864;52.998;9.068;2022-11-20T10:57:22;3.10;81.90
11617;DHT22;5864;52.998;9.068;2022-11-20T11:00:04;3.10;86.60
11617;DHT22;5864;52.998;9.068;2022-11-20T11:02:35;3.10;99.90
11617;DHT22;5864;52.998;9.068;2022-11-20T11:05:16;3.10;99.90
11617;DHT22;5864;52.998;9.068;2022-11-20T11:07:45;3.10;99.90
11617;DHT22;5864;52.998;9.068;2022-11-20T11:10:18;3.10;99.90
11617;DHT22;5864;52.998;9.068;2022-11-20T11:12:47;3.10;99.90
11617;DHT22;5864;52.998;9.068;2022-11-20T11:15:26;3.10;99.90
11617;DHT22;5864;52.998;9.068;2022-11-20T11:17:55;3.10;99.90
11617;DHT22;5864;52.998;9.068;2022-11-20T11:20:25;3.00;83.90
11617;DHT22;5864;52.998;9.068;2022-11-20T11:22:54;3.00;99.90
11617;DHT22;5864;52.998;9.068;2022-11-20T11:25:28;3.00;99.90
11617;DHT22;5864;52.998;9.068;2022-11-20T11:27:58;2.90;99.90
11617;DHT22;5864;52.998;9.068;2022-11-20T11:30:27;2.80;99.90
11617;DHT22;5864;52.998;9.068;2022-11-20T11:33:10;2.80;99.90
11617;DHT22;5864;52.998;9.068;2022-11-20T11:35:44;2.80;99.90
11617;DHT22;5864;52.998;9.068;2022-11-20T11:38:15;2.80;99.90
11617;DHT22;5864;52.998;9.068;2022-11-20T11:40:44;2.80;99.90
11617;DHT22;5864;52.998;9.068;2022-11-20T11:43:19;2.70;99.90
11617;DHT22;5864;52.998;9.068;2022-11-20T11:46:20;2.70;99.90
11617;DHT22;5864;52.998;9.068;2022-11-20T11:48:57;2.70;99.90
11617;DHT22;5864;52.998;9.068;2022-11-20T11:51:31;2.70;99.90
11617;DHT22;5864;52.998;9.068;2022-11-20T11:54:13;2.70;99.90
11617;DHT22;5864;52.998;9.068;2022-11-20T11:56:43;2.80;99.90
11617;DHT22;5864;52.998;9.068;2022-11-20T11:59:15;2.80;99.90
11617;DHT22;5864;52.998;9.068;2022-11-20T12:01:47;2.70;99.90
11617;DHT22;5864;52.998;9.068;2022-11-20T12:04:36;2.80;99.90
11617;DHT22;5864;52.998;9.068;2022-11-20T12:07:12;2.80;99.90
11617;DHT22;5864;52.998;9.068;2022-11-20T12:09:47;2.80;99.90
11617;DHT22;5864;52.998;9.068;2022-11-20T12:12:18;2.70;99.90
11617;DHT22;5864;52.998;9.068;2022-11-20T12:14:48;2.70;99.90
11617;DHT22;5864;52.998;9.068;2022-11-20T12:17:18;2.80;99.90
11617;DHT22;5864;52.998;9.068;2022-11-20T12:19:47;2.90;99.90
11617;DHT22;5864;52.998;9.068;2022-11-20T12:22:23;3.20;99.90
11617;DHT22;5864;52.998;9.068;2022-11-20T12:24:57;3.30;99.90
11617;DHT22;5864;52.998;9.068;2022-11-20T12:27:52;3.50;99.90
11617;DHT22;5864;52.998;9.068;2022-11-20T12:30:22;3.40;99.20
11617;DHT22;5864;52.998;9.068;2022-11-20T12:33:04;3.50;99.90
11617;DHT22;5864;52.998;9.068;2022-11-20T12:36:00;3.50;94.00
11617;DHT22;5864;52.998;9.068;2022-11-20T12:39:07;3.40;99.90
11617;DHT22;5864;52.998;9.068;2022-11-20T12:41:46;3.30;99.90
11617;DHT22;5864;52.998;9.068;2022-11-20T12:44:47;3.40;99.90
11617;DHT22;5864;52.998;9.068;2022-11-20T12:47:58;3.30;99.90
11617;DHT22;5864;52.998;9.068;2022-11-20T12:50:36;3.20;99.90
11617;DHT22;5864;52.998;9.068;2022-11-20T12:53:14;3.20;99.90
11617;DHT22;5864;52.998;9.068;2022-11-20T12:55:56;3.20;99.90
11617;DHT22;5864;52.998;9.068;2022-11-20T12:58:30;3.10;99.90
11617;DHT22;5864;52.998;9.068;2022-11-20T13:01:05;3.10;99.90
11617;DHT22;5864;52.998;9.068;2022-11-20T13:03:58;3.00;99.90
11617;DHT22;5864;52.998;9.068;2022-11-20T13:06:31;3.10;99.90
11617;DHT22;5864;52.998;9.068;2022-11-20T13:09:00;3.10;99.90
11617;DHT22;5864;52.998;9.068;2022-11-20T13:11:33;3.10;99.90
11617;DHT22;5864;52.998;9.068;2022-11-20T13:14:18;3.10;99.90
11617;DHT22;5864;52.998;9.068;2022-11-20T13:16:54;3.20;99.90
11617;DHT22;5864;52.998;9.068;2022-11-20T13:19:25;3.10;99.90
11617;DHT22;5864;52.998;9.068;2022-11-20T13:21:55;3.10;99.90
11617;DHT22;5864;52.998;9.068;2022-11-20T13:24:26;3.10;99.90
11617;DHT22;5864;52.998;9.068;2022-11-20T13:27:18;3.10;99.90
11617;DHT22;5864;52.998;9.068;2022-11-20T13:29:59;3.10;99.90
11617;DHT22;5864;52.998;9.068;2022-11-20T13:32:27;3.20;99.90
11617;DHT22;5864;52.998;9.068;2022-11-20T13:34:59;3.10;99.90
11617;DHT22;5864;52.998;9.068;2022-11-20T13:37:30;3.00;99.90
11617;DHT22;5864;52.998;9.068;2022-11-20T13:40:21;3.00;99.90
11617;DHT22;5864;52.998;9.068;2022-11-20T13:43:01;3.00;99.90
11617;DHT22;5864;52.998;9.068;2022-11-20T13:45:30;3.00;99.90
11617;DHT22;5864;52.998;9.068;2022-11-20T13:48:02;2.90;99.90
11617;DHT22;5864;52.998;9.068;2022-11-20T13:50:46;2.80;99.90
11617;DHT22;5864;52.998;9.068;2022-11-20T13:56:23;2.80;99.90
11617;DHT22;5864;52.998;9.068;2022-11-20T13:58:59;2.80;99.90
11617;DHT22;5864;52.998;9.068;2022-11-20T14:01:30;2.70;99.90
11617;DHT22;5864;52.998;9.068;2022-11-20T14:03:59;2.50;99.90
11617;DHT22;5864;52.998;9.068;2022-11-20T14:06:28;2.60;99.90
11617;DHT22;5864;52.998;9.068;2022-11-20T14:08:58;2.50;99.90
11617;DHT22;5864;52.998;9.068;2022-11-20T14:11:28;2.50;99.90
11617;DHT22;5864;52.998;9.068;2022-11-20T14:13:59;2.40;99.90
11617;DHT22;5864;52.998;9.068;2022-11-20T14:16:29;2.30;99.90
11617;DHT22;5864;52.998;9.068;2022-11-20T14:19:08;2.30;99.90
11617;DHT22;5864;52.998;9.068;2022-11-20T14:21:44;2.30;99.90
11617;DHT22;5864;52.998;9.068;2022-11-20T14:24:12;2.30;99.90
11617;DHT22;5864;52.998;9.068;2022-11-20T14:26:43;2.20;99.90
11617;DHT22;5864;52.998;9.068;2022-11-20T14:29:12;2.20;99.90
11617;DHT22;5864;52.998;9.068;2022-11-20T14:31:40;2.10;99.90
11617;DHT22;5864;52.998;9.068;2022-11-20T14:34:14;2.10;99.90
11617;DHT22;5864;52.998;9.068;2022-11-20T14:36:43;2.00;99.90
11617;DHT22;5864;52.998;9.068;2022-11-20T14:39:12;2.00;99.90
11617;DHT22;5864;52.998;9.068;2022-11-20T14:41:51;1.90;99.90
11617;DHT22;5864;52.998;9.068;2022-11-20T14:44:23;1.90;99.90
11617;DHT22;5864;52.998;9.068;2022-11-20T14:46:52;1.90;99.90
11617;DHT22;5864;52.998;9.068;2022-11-20T14:49:21;1.90;99.90
11617;DHT22;5864;52.998;9.068;2022-11-20T14:51:58;1.90;99.90
11617;DHT22;5864;52.998;9.068;2022-11-20T14:54:26;1.80;99.90
11617;DHT22;5864;52.998;9.068;2022-11-20T14:56:58;1.80;99.90
11617;DHT22;5864;52.998;9.068;2022-11-20T14:59:27;1.80;99.90
11617;DHT22;5864;52.998;9.068;2022-11-20T15:01:57;1.70;99.90
11617;DHT22;5864;52.998;9.068;2022-11-20T15:04:25;1.70;99.90
11617;DHT22;5864;52.998;9.068;2022-11-20T15:06:54;1.70;99.90
11617;DHT22;5864;52.998;9.068;2022-11-20T15:09:23;1.60;99.90
11617;DHT22;5864;52.998;9.068;2022-11-20T15:11:53;1.60;99.90
11617;DHT22;5864;52.998;9.068;2022-11-20T15:14:23;1.70;99.90
11617;DHT22;5864;52.998;9.068;2022-11-20T15:16:52;1.60;99.90
11617;DHT22;5864;52.998;9.068;2022-11-20T15:19:21;1.60;99.90
11617;DHT22;5864;52.998;9.068;2022-11-20T15:21:49;1.60;99.90
11617;DHT22;5864;52.998;9.068;2022-11-20T15:24:17;1.40;99.90
11617;DHT22;5864;52.998;9.068;2022-11-20T15:26:45;1.40;99.90
11617;DHT22;5864;52.998;9.068;2022-11-20T15:29:14;1.40;99.90
11617;DHT22;5864;52.998;9.068;2022-11-20T15:31:46;1.30;99.90
11617;DHT22;5864;52.998;9.068;2022-11-20T15:34:14;1.20;99.90
11617;DHT22;5864;52.998;9.068;2022-11-20T15:36:43;1.20;99.90
11617;DHT22;5864;52.998;9.068;2022-11-20T15:39:10;1.20;99.90
11617;DHT22;5864;52.998;9.068;2022-11-20T15:41:38;1.10;99.90
11617;DHT22;5864;52.998;9.068;2022-11-20T15:44:06;1.00;99.90
11617;DHT22;5864;52.998;9.068;2022-11-20T15:46:37;1.00;99.90
11617;DHT22;5864;52.998;9.068;2022-11-20T15:49:11;1.10;99.90
11617;DHT22;5864;52.998;9.068;2022-11-20T15:51:41;1.00;99.90
11617;DHT22;5864;52.998;9.068;2022-11-20T15:54:11;1.00;99.90
11617;DHT22;5864;52.998;9.068;2022-11-20T15:56:39;1.00;99.90
11617;DHT22;5864;52.998;9.068;2022-11-20T15:59:07;1.00;99.90
11617;DHT22;5864;52.998;9.068;2022-11-20T16:01:34;1.00;99.90
11617;DHT22;5864;52.998;9.068;2022-11-20T16:04:02;1.00;99.90
11617;DHT22;5864;52.998;9.068;2022-11-20T16:06:31;1.00;99.90
11617;DHT22;5864;52.998;9.068;2022-11-20T16:08:58;0.90;99.90
11617;DHT22;5864;52.998;9.068;2022-11-20T16:11:26;0.90;99.90
11617;DHT22;5864;52.998;9.068;2022-11-20T16:13:53;0.90;99.90
11617;DHT22;5864;52.998;9.068;2022-11-20T16:16:38;0.90;99.90
11617;DHT22;5864;52.998;9.068;2022-11-20T16:19:10;0.90;99.90
11617;DHT22;5864;52.998;9.068;2022-11-20T16:21:39;1.00;99.90
11617;DHT22;5864;52.998;9.068;2022-11-20T16:24:09;0.80;99.90
11617;DHT22;5864;52.998;9.068;2022-11-20T16:26:37;0.80;99.90
11617;DHT22;5864;52.998;9.068;2022-11-20T16:29:05;0.90;99.90